Time;durP1;ratioP1;P1;durP2;ratioP2;P2;SDS_P1;SDS_P2;PMS_P1;PMS_P2;Temp;Humidity;BMP_temperature;BMP_pressure;BME280_temperature;BME280_humidity;BME280_pressure;Samples;Min_cycle;Max_cycle;Signal;HPM_P1;HPM_P2
2023/10/05 00:02:10;;;;;;;3.08;1.23;;;;;;;22.56;100.00;101907.75;4933870;29;20126;-43
2023/10/05 00:04:40;;;;;;;5.30;1.40;;;;;;;22.52;100.00;101904.31;4934323;29;20047;-43
2023/10/05 00:07:23;;;;;;;4.32;1.70;;;;;;;22.58;100.00;101908.09;4934077;29;20407;-45
2023/10/05 00:09:51;;;;;;;5.55;1.88;;;;;;;22.53;100.00;101914.38;4932611;29;20114;-45
2023/10/05 00:12:20;;;;;;;3.92;1.25;;;;;;;22.57;100.00;101917.84;4930932;29;20047;-42
2023/10/05 00:15:34;;;;;;;4.95;1.70;;;;;;;22.57;100.00;101920.66;4933896;29;20083;-44
2023/10/05 00:17:37;;;;;;;5.53;2.00;;;;;;;22.53;100.00;101923.66;4929962;29;20063;-42
2023/10/05 00:20:10;;;;;;;3.90;1.52;;;;;;;22.55;100.00;101921.16;4933127;29;20048;-43
2023/10/05 00:22:37;;;;;;;5.70;1.77;;;;;;;22.58;100.00;101917.34;4932572;29;20055;-40
2023/10/05 00:25:05;;;;;;;4.68;1.65;;;;;;;22.55;100.00;101917.53;4932826;29;20066;-41
2023/10/05 00:27:32;;;;;;;3.33;1.42;;;;;;;22.57;100.00;101912.16;4933123;29;20126;-44
2023/10/05 00:29:58;;;;;;;4.35;1.63;;;;;;;22.56;100.00;101913.44;4933573;29;20061;-41
2023/10/05 00:32:35;;;;;;;5.50;1.67;;;;;;;22.58;100.00;101911.69;4934055;29;20154;-44
2023/10/05 00:35:23;;;;;;;4.50;1.60;;;;;;;22.56;100.00;101921.94;4931244;29;20051;-41
2023/10/05 00:37:50;;;;;;;2.45;1.40;;;;;;;22.59;100.00;101930.28;4931531;29;20127;-42
2023/10/05 00:40:35;;;;;;;3.83;1.33;;;;;;;22.53;100.00;101917.22;4932907;29;20192;-43
2023/10/05 00:43:11;;;;;;;4.90;1.55;;;;;;;22.57;100.00;101917.84;4932544;29;20058;-44
2023/10/05 00:45:39;;;;;;;5.38;1.50;;;;;;;22.55;100.00;101917.53;4933411;29;20075;-42
2023/10/05 00:48:19;;;;;;;4.43;1.50;;;;;;;22.54;100.00;101913.91;4932113;29;20135;-42
2023/10/05 00:50:46;;;;;;;3.10;1.40;;;;;;;22.55;100.00;101912.66;4932378;29;20052;-42
2023/10/05 00:53:13;;;;;;;4.80;1.77;;;;;;;22.56;100.00;101905.72;4932793;29;20415;-42
2023/10/05 00:55:43;;;;;;;5.88;1.92;;;;;;;22.60;100.00;101911.22;4932665;29;20067;-42
2023/10/05 00:58:14;;;;;;;6.90;1.77;;;;;;;22.61;100.00;101915.66;4933148;29;20110;-41
2023/10/05 01:00:50;;;;;;;4.82;1.50;;;;;;;22.61;100.00;101915.66;4932943;29;20462;-40
2023/10/05 01:03:33;;;;;;;4.28;1.40;;;;;;;22.59;100.00;101923.81;4925897;29;20683;-46
2023/10/05 01:06:27;;;;;;;5.45;1.98;;;;;;;22.58;100.00;101917.34;4928589;29;20107;-41
2023/10/05 01:08:59;;;;;;;3.90;1.70;;;;;;;22.56;100.00;101919.91;4929871;29;20056;-43
2023/10/05 01:11:52;;;;;;;3.55;1.50;;;;;;;22.58;100.00;101922.25;4932208;29;20055;-41
2023/10/05 01:14:19;;;;;;;6.00;2.05;;;;;;;22.58;100.00;101919.44;4926239;29;20056;-42
2023/10/05 01:16:46;;;;;;;4.82;1.50;;;;;;;22.57;100.00;101920.66;4932840;29;20055;-43
2023/10/05 01:19:13;;;;;;;4.22;1.77;;;;;;;22.59;100.00;101918.16;4932590;29;20055;-45
2023/10/05 01:21:43;;;;;;;4.60;1.35;;;;;;;22.57;100.00;101918.63;4931367;29;20095;-42
2023/10/05 01:24:11;;;;;;;4.93;1.70;;;;;;;22.58;100.00;101913.75;4932324;29;20048;-40
2023/10/05 01:26:38;;;;;;;4.55;1.70;;;;;;;22.58;100.00;101913.75;4932614;29;20051;-41
2023/10/05 01:29:05;;;;;;;4.60;1.70;;;;;;;22.57;100.00;101920.66;4932362;29;20126;-44
2023/10/05 01:31:32;;;;;;;3.35;1.70;;;;;;;22.57;100.00;101912.16;4931905;29;20052;-43
2023/10/05 01:33:59;;;;;;;3.35;1.30;;;;;;;22.55;100.00;101914.69;4932182;29;20051;-42
2023/10/05 01:36:26;;;;;;;2.58;1.13;;;;;;;22.58;100.00;101919.44;4929776;29;20528;-40
2023/10/05 01:39:00;;;;;;;3.42;1.38;;;;;;;22.54;100.00;101919.56;4931437;29;20094;-37
2023/10/05 01:41:27;;;;;;;3.90;1.48;;;;;;;22.57;100.00;101915.00;4931869;29;20130;-41
2023/10/05 01:43:55;;;;;;;2.33;1.17;;;;;;;22.56;100.00;101913.44;4931951;29;20066;-44
2023/10/05 01:46:23;;;;;;;6.60;2.00;;;;;;;22.53;100.00;101912.34;4931774;29;20058;-45
2023/10/05 01:48:51;;;;;;;2.45;1.20;;;;;;;22.58;100.00;101911.69;4929452;29;20048;-43
2023/10/05 01:51:23;;;;;;;3.70;1.27;;;;;;;22.56;100.00;101904.94;4931279;29;20055;-40
2023/10/05 01:53:58;;;;;;;4.05;1.30;;;;;;;22.57;100.00;101907.28;4930403;29;20074;-42
2023/10/05 01:56:25;;;;;;;3.63;1.50;;;;;;;22.62;100.00;101908.72;4932007;29;20055;-41
2023/10/05 01:58:54;;;;;;;4.75;1.67;;;;;;;22.61;100.00;101907.16;4931883;29;20649;-40
2023/10/05 02:01:21;;;;;;;3.28;1.40;;;;;;;22.54;100.00;101901.78;4930209;29;20143;-41
2023/10/05 02:03:53;;;;;;;4.00;1.33;;;;;;;22.53;100.00;101903.84;4930758;29;20063;-44
2023/10/05 02:06:21;;;;;;;5.45;1.88;;;;;;;22.55;100.00;101900.53;4931955;29;20083;-42
2023/10/05 02:08:47;;;;;;;7.28;1.70;;;;;;;22.60;100.00;101908.38;4931605;29;20055;-41
2023/10/05 02:11:18;;;;;;;7.50;1.50;;;;;;;22.67;100.00;101911.69;4930342;29;20143;-46
2023/10/05 02:13:45;;;;;;;5.40;1.38;;;;;;;22.67;100.00;101914.53;4931524;29;20083;-41
2023/10/05 02:16:20;;;;;;;4.10;1.30;;;;;;;22.66;100.00;101912.16;4930424;29;20099;-41
2023/10/05 02:18:48;;;;;;;4.80;1.30;;;;;;;22.63;100.00;101913.13;4931879;29;20075;-41
2023/10/05 02:21:19;;;;;;;2.88;1.30;;;;;;;22.63;100.00;101915.94;4931265;29;20067;-45
2023/10/05 02:23:51;;;;;;;3.85;1.30;;;;;;;22.62;100.00;101909.50;4931445;29;20491;-41
2023/10/05 02:26:24;;;;;;;3.22;1.30;;;;;;;22.62;100.00;101914.38;4931867;29;20044;-41
2023/10/05 02:28:51;;;;;;;5.70;1.50;;;;;;;22.63;100.00;101910.28;4931286;29;20130;-43
2023/10/05 02:31:20;;;;;;;3.30;1.27;;;;;;;22.63;100.00;101911.06;4930508;29;20066;-42
2023/10/05 02:33:47;;;;;;;4.95;1.67;;;;;;;22.62;100.00;101901.00;4931246;29;20052;-42
2023/10/05 02:36:20;;;;;;;3.58;1.30;;;;;;;22.62;100.00;101903.03;4931100;29;20143;-42
2023/10/05 02:38:53;;;;;;;3.13;1.20;;;;;;;22.61;100.00;101895.81;4931614;29;20082;-41
2023/10/05 02:41:25;;;;;;;3.53;1.30;;;;;;;22.55;100.00;101892.81;4914423;29;20080;-41
2023/10/05 02:43:52;;;;;;;4.80;1.50;;;;;;;22.58;100.00;101891.84;4931179;29;20086;-42
2023/10/05 02:46:20;;;;;;;2.10;1.02;;;;;;;22.55;100.00;101886.34;4929802;29;20070;-43
2023/10/05 02:48:47;;;;;;;3.35;1.40;;;;;;;22.54;100.00;101890.47;4930582;29;20058;-45
2023/10/05 02:51:16;;;;;;;3.40;1.27;;;;;;;22.52;100.00;101884.47;4930394;29;20059;-42
2023/10/05 02:53:55;;;;;;;3.05;1.35;;;;;;;22.55;100.00;101892.03;4931202;29;20055;-42
2023/10/05 02:56:27;;;;;;;3.38;1.30;;;;;;;22.54;100.00;101885.56;4924984;29;20051;-42
2023/10/05 02:58:56;;;;;;;3.75;1.45;;;;;;;22.52;100.00;101876.75;4930994;29;20090;-40
2023/10/05 03:01:23;;;;;;;3.33;1.38;;;;;;;22.54;100.00;101877.06;4930256;29;20697;-42
2023/10/05 03:03:55;;;;;;;4.68;1.58;;;;;;;22.52;100.00;101876.75;4931032;29;20066;-41
2023/10/05 03:06:23;;;;;;;3.60;1.40;;;;;;;22.51;100.00;101875.16;4930495;29;20073;-43
2023/10/05 03:08:54;;;;;;;4.30;1.15;;;;;;;22.52;100.00;101876.75;4929696;29;20090;-42
2023/10/05 03:11:20;;;;;;;2.63;1.40;;;;;;;22.49;100.00;101879.75;4930527;29;20494;-43
2023/10/05 03:13:47;;;;;;;5.15;1.48;;;;;;;22.50;100.00;101865.09;4931395;29;20130;-44
2023/10/05 03:16:16;;;;;;;3.55;1.30;;;;;;;22.51;100.00;101875.16;4928130;29;20474;-44
2023/10/05 03:18:43;;;;;;;2.80;1.23;;;;;;;22.52;100.00;101876.75;4930932;29;20071;-44
2023/10/05 03:21:14;;;;;;;2.80;1.13;;;;;;;22.49;100.00;101872.03;4930544;29;20055;-39
2023/10/05 03:23:44;;;;;;;6.88;2.28;;;;;;;22.47;100.00;101874.53;4931141;29;20139;-42
2023/10/05 03:26:15;;;;;;;3.97;1.70;;;;;;;22.48;100.00;101872.50;4930518;29;20135;-40
2023/10/05 03:28:42;;;;;;;3.45;1.33;;;;;;;22.50;100.00;101878.47;4931179;29;20537;-41
2023/10/05 03:32:19;;;;;;;3.17;1.20;;;;;;;22.48;100.00;101875.34;4930531;29;20060;-47
2023/10/05 03:34:13;;;;;;;3.63;1.50;;;;;;;22.49;100.00;101876.91;4910803;29;20094;-43
2023/10/05 03:36:47;;;;;;;1.35;0.98;;;;;;;22.50;100.00;101890.59;4930809;29;20173;-41
2023/10/05 03:39:14;;;;;;;2.95;1.40;;;;;;;22.49;100.00;101882.56;4923527;29;20118;-40
2023/10/05 03:41:41;;;;;;;2.33;1.02;;;;;;;22.47;100.00;101873.78;4931038;29;20090;-40
2023/10/05 03:44:08;;;;;;;2.60;1.10;;;;;;;22.49;100.00;101882.56;4931047;29;20195;-41
2023/10/05 03:46:35;;;;;;;3.15;1.40;;;;;;;22.47;100.00;101885.88;4931055;29;20051;-43
2023/10/05 03:49:02;;;;;;;2.08;1.17;;;;;;;22.47;100.00;101882.28;4930155;29;20767;-42
2023/10/05 03:51:29;;;;;;;2.35;1.15;;;;;;;22.48;100.00;101886.69;4930078;29;20134;-44
2023/10/05 03:53:56;;;;;;;4.95;1.52;;;;;;;22.46;100.00;101872.97;4932250;29;20055;-42
2023/10/05 03:56:26;;;;;;;3.15;1.38;;;;;;;22.47;100.00;101876.59;4934177;29;20055;-41
2023/10/05 03:58:54;;;;;;;2.35;1.13;;;;;;;22.47;100.00;101879.44;4916580;29;20142;-40
2023/10/05 04:01:24;;;;;;;3.33;1.27;;;;;;;22.44;100.00;101881.16;4934182;29;20488;-42
2023/10/05 04:03:51;;;;;;;5.43;1.50;;;;;;;22.45;100.00;101876.28;4932832;29;20048;-40
2023/10/05 04:06:18;;;;;;;2.30;1.20;;;;;;;22.46;100.00;101875.00;4932273;29;20047;-40
2023/10/05 04:08:49;;;;;;;4.00;1.33;;;;;;;22.46;100.00;101881.47;4934132;29;20102;-44
2023/10/05 04:11:17;;;;;;;2.90;1.17;;;;;;;22.45;100.00;101881.94;4932663;29;20047;-43
2023/10/05 04:13:45;;;;;;;4.55;1.30;;;;;;;22.44;100.00;101878.31;4934058;29;20091;-46
2023/10/05 04:16:21;;;;;;;3.50;1.40;;;;;;;22.49;100.00;101886.22;4926390;29;20079;-41
2023/10/05 04:18:52;;;;;;;3.65;1.30;;;;;;;22.50;100.00;101887.78;4933980;29;20056;-41
2023/10/05 04:21:19;;;;;;;2.92;1.38;;;;;;;22.48;100.00;101881.00;4935162;29;20058;-42
2023/10/05 04:23:52;;;;;;;3.33;1.50;;;;;;;22.49;100.00;101882.56;4933480;29;20130;-40
2023/10/05 04:26:20;;;;;;;2.75;1.38;;;;;;;22.49;100.00;101886.22;4933789;29;20079;-42
2023/10/05 04:28:54;;;;;;;2.75;1.00;;;;;;;22.49;100.00;101885.41;4933639;29;20051;-43
2023/10/05 04:31:25;;;;;;;1.90;0.97;;;;;;;22.46;100.00;101883.50;4933068;29;20502;-43
2023/10/05 04:33:54;;;;;;;2.53;1.10;;;;;;;22.46;100.00;101886.34;4932533;29;20056;-44
2023/10/05 04:36:22;;;;;;;3.63;1.20;;;;;;;22.47;100.00;101885.09;4933613;29;20062;-42
2023/10/05 04:38:54;;;;;;;2.42;1.00;;;;;;;22.46;100.00;101884.31;4933277;29;20063;-43
2023/10/05 04:41:28;;;;;;;2.05;0.98;;;;;;;22.45;100.00;101888.41;4933301;29;20146;-41
2023/10/05 04:43:56;;;;;;;4.55;1.42;;;;;;;22.43;100.00;101882.41;4933403;29;20082;-41
2023/10/05 04:46:24;;;;;;;3.40;1.38;;;;;;;22.43;100.00;101873.91;4933303;29;20534;-41
2023/10/05 04:49:02;;;;;;;3.60;1.00;;;;;;;22.44;100.00;101874.72;4933200;29;20071;-41
2023/10/05 04:51:31;;;;;;;2.58;1.30;;;;;;;22.41;100.00;101864.31;4930816;29;20154;-42
2023/10/05 04:54:01;;;;;;;3.35;1.13;;;;;;;22.42;100.00;101868.72;4932632;29;20055;-43
2023/10/05 04:56:35;;;;;;;3.33;1.42;;;;;;;22.44;100.00;101869.06;4937594;29;20565;-42
2023/10/05 05:04:41;;;;;;;2.58;1.42;;;;;;;22.41;100.00;101876.44;4932541;29;20059;-41
2023/10/05 05:07:09;;;;;;;2.78;1.00;;;;;;;22.42;100.00;101875.19;4931822;29;20052;-43
2023/10/05 05:09:39;;;;;;;3.28;1.00;;;;;;;22.45;100.00;101876.28;4933874;29;20063;-44
2023/10/05 05:12:16;;;;;;;3.72;1.17;;;;;;;22.43;100.00;101878.78;4933525;29;20083;-42
2023/10/05 05:14:47;;;;;;;4.20;1.15;;;;;;;22.45;100.00;101867.78;4932950;29;20052;-42
2023/10/05 05:17:18;;;;;;;3.00;1.40;;;;;;;22.44;100.00;101869.81;4932998;29;20077;-41
2023/10/05 05:19:46;;;;;;;4.95;1.20;;;;;;;22.44;100.00;101874.72;4932744;29;20486;-42
2023/10/05 05:22:13;;;;;;;3.22;1.08;;;;;;;22.44;100.00;101874.72;4931788;29;20079;-42
2023/10/05 05:24:44;;;;;;;3.47;1.20;;;;;;;22.42;100.00;101877.22;4936330;29;20048;-39
2023/10/05 05:29:44;;;;;;;2.50;1.23;;;;;;;22.43;100.00;101876.75;4931203;29;20596;-42
2023/10/05 05:32:11;;;;;;;2.88;1.08;;;;;;;22.42;100.00;101880.06;4931985;29;20463;-44
2023/10/05 05:34:41;;;;;;;1.95;1.10;;;;;;;22.42;100.00;101874.38;4932565;29;20106;-44
2023/10/05 05:37:13;;;;;;;2.80;1.17;;;;;;;22.43;100.00;101879.59;4932175;29;20118;-40
2023/10/05 05:39:40;;;;;;;1.73;0.90;;;;;;;22.44;100.00;101880.38;4932323;29;20044;-39
2023/10/05 05:42:13;;;;;;;3.28;1.10;;;;;;;22.43;100.00;101878.78;4930983;29;20165;-43
2023/10/05 05:44:43;;;;;;;3.25;1.42;;;;;;;22.42;100.00;101875.19;4932080;29;20048;-43
2023/10/05 05:47:13;;;;;;;2.88;1.20;;;;;;;22.42;100.00;101871.56;4932330;29;20470;-43
2023/10/05 05:49:41;;;;;;;1.70;1.10;;;;;;;22.41;100.00;101870.75;4932109;29;20078;-39
2023/10/05 05:52:12;;;;;;;3.50;1.02;;;;;;;22.41;100.00;101870.00;4931297;29;20064;-40
2023/10/05 05:54:39;;;;;;;3.05;1.42;;;;;;;22.41;100.00;101875.66;4931798;29;20079;-43
2023/10/05 05:57:09;;;;;;;1.98;1.08;;;;;;;22.42;100.00;101878.03;4932181;29;20138;-43
2023/10/05 05:59:39;;;;;;;2.70;1.00;;;;;;;22.40;100.00;101891.84;4930893;29;20135;-44
2023/10/05 06:02:08;;;;;;;1.67;0.88;;;;;;;22.43;100.00;101893.75;4930337;29;21676;-41
2023/10/05 06:04:35;;;;;;;1.90;0.90;;;;;;;22.40;100.00;101900.34;4931451;29;20059;-43
2023/10/05 06:07:11;;;;;;;3.50;1.17;;;;;;;22.40;100.00;101897.53;4930550;29;20111;-44
2023/10/05 06:09:43;;;;;;;1.52;0.90;;;;;;;22.39;100.00;101903.66;4930526;29;20572;-40
2023/10/05 06:12:11;;;;;;;2.22;1.00;;;;;;;22.41;100.00;101918.16;4931476;29;20051;-46
2023/10/05 06:14:41;;;;;;;2.53;1.20;;;;;;;22.39;100.00;101906.50;4931866;29;20130;-40
2023/10/05 06:17:08;;;;;;;2.28;1.00;;;;;;;22.37;100.00;101920.38;4936679;28;20048;-38
2023/10/05 06:19:36;;;;;;;1.98;0.90;;;;;;;22.42;100.00;101922.56;4927285;29;20051;-40
2023/10/05 06:22:04;;;;;;;2.53;1.00;;;;;;;22.38;100.00;101927.59;4931127;29;20071;-45
2023/10/05 06:24:31;;;;;;;3.28;1.35;;;;;;;22.42;100.00;101934.69;4931468;29;20059;-40
2023/10/05 06:27:00;;;;;;;2.25;1.00;;;;;;;22.38;100.00;101927.59;4924109;29;20131;-41
2023/10/05 06:29:27;;;;;;;1.88;0.82;;;;;;;22.37;100.00;101934.53;4931281;29;20047;-44
2023/10/05 06:31:53;;;;;;;2.65;0.88;;;;;;;22.36;100.00;101933.72;4930271;29;20055;-40
2023/10/05 06:34:20;;;;;;;3.58;1.20;;;;;;;22.41;100.00;101943.66;4931417;29;20044;-41
2023/10/05 06:36:47;;;;;;;1.33;0.75;;;;;;;22.42;100.00;101945.22;4932481;29;20074;-43
2023/10/05 06:39:14;;;;;;;2.30;1.10;;;;;;;22.42;100.00;101940.34;4927467;29;20146;-41
2023/10/05 06:41:53;;;;;;;3.80;1.20;;;;;;;22.48;100.00;101937.69;4928476;29;20150;-40
2023/10/05 06:44:20;;;;;;;3.10;1.05;;;;;;;22.46;100.00;101943.03;4928262;29;20158;-40
2023/10/05 06:46:47;;;;;;;2.25;1.13;;;;;;;22.47;100.00;101941.78;4939321;29;20103;-40
2023/10/05 06:49:14;;;;;;;2.75;1.10;;;;;;;22.45;100.00;101942.25;4914528;29;20072;-44
2023/10/05 06:51:45;;;;;;;2.88;0.82;;;;;;;22.43;100.00;101946.78;4928283;29;20055;-43
2023/10/05 06:54:15;;;;;;;2.22;0.90;;;;;;;22.43;100.00;101947.59;4926042;29;20454;-42
2023/10/05 06:56:48;;;;;;;4.78;1.20;;;;;;;22.42;100.00;101946.03;4928068;29;20050;-41
2023/10/05 06:59:15;;;;;;;3.10;1.20;;;;;;;22.44;100.00;101946.31;4922318;29;20068;-42
2023/10/05 07:01:42;;;;;;;2.10;1.00;;;;;;;22.41;100.00;101943.66;4929387;29;20048;-40
2023/10/05 07:04:08;;;;;;;5.40;1.33;;;;;;;22.42;100.00;101951.69;4928106;29;20052;-39
2023/10/05 07:06:35;;;;;;;4.57;1.13;;;;;;;22.40;100.00;101953.41;4912389;29;20095;-40
2023/10/05 07:09:02;;;;;;;2.20;0.88;;;;;;;22.41;100.00;101955.00;4930386;29;20051;-40
2023/10/05 07:11:30;;;;;;;1.85;0.80;;;;;;;22.40;100.00;101959.06;4928239;29;20573;-41
2023/10/05 07:13:57;;;;;;;2.20;0.90;;;;;;;22.42;100.00;101951.69;4928358;29;20084;-39
2023/10/05 07:16:24;;;;;;;1.58;0.93;;;;;;;22.42;100.00;101957.34;4928409;29;20082;-40
2023/10/05 07:18:51;;;;;;;3.97;1.13;;;;;;;22.46;100.00;101962.84;4928286;29;20514;-40
2023/10/05 07:21:18;;;;;;;1.90;1.02;;;;;;;22.44;100.00;101957.66;4927975;29;20749;-43
2023/10/05 07:23:44;;;;;;;1.60;0.90;;;;;;;22.44;100.00;101959.72;4930858;29;20079;-45
2023/10/05 07:26:11;;;;;;;3.08;0.90;;;;;;;22.45;100.00;101966.97;4929907;29;20052;-41
2023/10/05 07:28:39;;;;;;;1.95;0.90;;;;;;;22.49;100.00;101959.09;4930734;29;20058;-40
2023/10/05 07:31:06;;;;;;;6.75;1.63;;;;;;;22.47;100.00;101965.22;4934012;29;20090;-44
2023/10/05 07:33:33;;;;;;;2.38;1.10;;;;;;;22.38;100.00;101959.56;4933299;29;20075;-42
2023/10/05 07:36:02;;;;;;;6.43;1.40;;;;;;;22.37;100.00;101971.38;4933579;29;20114;-44
2023/10/05 07:38:29;;;;;;;11.77;1.75;;;;;;;22.32;100.00;101972.75;4932477;29;20185;-41
2023/10/05 07:40:56;;;;;;;8.77;2.30;;;;;;;22.36;100.00;101975.44;4932887;29;20055;-40
2023/10/05 07:43:23;;;;;;;9.32;2.58;;;;;;;22.31;100.00;101978.91;4933047;29;20079;-42
2023/10/05 07:45:50;;;;;;;8.15;2.08;;;;;;;22.29;100.00;101987.84;4933783;29;20056;-39
2023/10/05 07:48:17;;;;;;;9.23;2.28;;;;;;;22.35;100.00;101986.00;4931903;29;20051;-43
2023/10/05 07:50:44;;;;;;;6.95;1.52;;;;;;;22.37;100.00;101994.03;4933490;29;20051;-41
2023/10/05 07:53:10;;;;;;;6.82;1.60;;;;;;;22.45;100.00;102003.78;4932053;29;20151;-43
2023/10/05 07:55:37;;;;;;;7.97;1.83;;;;;;;22.40;100.00;102002.38;4933481;29;20139;-43
2023/10/05 07:58:05;;;;;;;6.80;2.22;;;;;;;22.39;100.00;101997.16;4932083;29;20086;-41
2023/10/05 08:00:33;;;;;;;8.90;1.98;;;;;;;22.32;100.00;102008.81;4932747;29;20138;-41
2023/10/05 08:03:00;;;;;;;12.00;2.47;;;;;;;22.15;100.00;102002.59;4931698;29;20102;-42
2023/10/05 08:05:26;;;;;;;10.07;2.90;;;;;;;22.06;100.00;102005.38;4931052;29;20049;-39
2023/10/05 08:07:54;;;;;;;13.00;3.00;;;;;;;22.04;100.00;102005.84;4933997;29;20055;-43
2023/10/05 08:10:21;;;;;;;9.43;2.67;;;;;;;22.11;100.00;102014.06;4932145;29;20047;-43
2023/10/05 08:12:50;;;;;;;14.25;3.00;;;;;;;22.17;100.00;102009.34;4929155;29;20051;-41
2023/10/05 08:15:20;;;;;;;12.07;2.33;;;;;;;22.21;100.00;102017.72;4927993;29;20047;-40
2023/10/05 08:17:49;;;;;;;8.80;2.08;;;;;;;22.22;100.00;102012.84;4927222;29;20066;-42
2023/10/05 08:20:17;;;;;;;12.27;2.75;;;;;;;22.25;100.00;102021.19;4931419;29;20063;-41
2023/10/05 08:22:50;;;;;;;13.57;3.00;;;;;;;22.25;100.00;102017.56;4933721;29;20534;-42
2023/10/05 08:25:16;;;;;;;10.18;2.60;;;;;;;22.33;100.00;102021.69;4929220;29;20127;-47
2023/10/05 08:27:43;;;;;;;9.73;2.15;;;;;;;22.29;100.00;102046.53;4916120;29;20099;-41
2023/10/05 08:30:13;;;;;;;12.85;2.60;;;;;;;22.25;100.00;102040.22;4935836;29;20103;-41
2023/10/05 08:32:40;;;;;;;15.80;2.53;;;;;;;22.17;100.00;102037.69;4926759;29;20055;-41
2023/10/05 08:35:18;;;;;;;10.52;3.15;;;;;;;22.14;100.00;102044.28;4926211;29;20052;-41
2023/10/05 08:37:49;;;;;;;11.38;2.30;;;;;;;22.13;100.00;102038.31;4932456;29;20048;-42
2023/10/05 08:43:16;;;;;;;9.93;2.45;;;;;;;22.13;100.00;102046.81;4931704;29;20139;-37
2023/10/05 08:45:46;;;;;;;10.15;2.58;;;;;;;22.07;100.00;102053.06;4933169;29;20601;-40
2023/10/05 08:48:30;;;;;;;11.18;2.53;;;;;;;22.24;100.00;102047.16;4943906;29;20071;-42
2023/10/05 08:51:09;;;;;;;23.40;2.90;;;;;;;22.22;100.00;102039.13;4931526;29;20047;-43
2023/10/05 08:53:44;;;;;;;12.98;2.38;;;;;;;22.17;100.00;102036.13;4936476;29;20833;-44
2023/10/05 08:56:15;;;;;;;9.50;2.30;;;;;;;22.27;100.00;102034.91;4939985;29;20044;-40
2023/10/05 08:58:47;;;;;;;16.55;3.22;;;;;;;22.20;100.00;102030.28;4935358;29;20600;-38
2023/10/05 09:01:25;;;;;;;14.95;3.75;;;;;;;22.04;100.00;102037.00;4931457;29;20051;-40
2023/10/05 09:06:55;;;;;;;11.43;2.80;;;;;;;22.07;100.00;102044.56;4932645;29;20556;-42
2023/10/05 09:09:51;;;;;;;10.07;2.90;;;;;;;22.03;100.00;102045.97;4930191;29;20418;-40
2023/10/05 09:12:35;;;;;;;;;;;;;;;22.25;100.00;102048.72;4931071;29;20088;-43
2023/10/05 09:15:04;;;;;;;21.30;3.80;;;;;;;22.18;100.00;102047.75;4931114;29;20017;-41
2023/10/05 09:17:34;;;;;;;15.65;2.85;;;;;;;22.07;100.00;102043.75;4912384;29;20043;-43
2023/10/05 09:20:31;;;;;;;21.48;3.35;;;;;;;21.91;100.00;102049.69;4901794;29;20577;-39
2023/10/05 09:23:06;;;;;;;9.10;2.90;;;;;;;22.03;100.00;102052.41;4938203;29;20529;-42
2023/10/05 09:25:44;;;;;;;13.02;3.13;;;;;;;22.18;100.00;102046.97;4934465;29;20391;-41
2023/10/05 09:28:14;;;;;;;11.95;2.90;;;;;;;22.18;100.00;102056.25;4924846;29;20132;-42
2023/10/05 09:30:55;;;;;;;19.95;3.70;;;;;;;22.14;100.00;102061.28;4930437;29;20062;-44
2023/10/05 09:33:25;;;;;;;14.15;3.40;;;;;;;22.05;100.00;102061.22;4926132;29;20058;-41
2023/10/05 09:36:06;;;;;;;17.88;3.42;;;;;;;22.04;100.00;102068.16;4935920;29;20058;-44
2023/10/05 09:38:38;;;;;;;7.45;2.75;;;;;;;22.12;100.00;102071.50;4930592;29;20058;-42
2023/10/05 09:41:06;;;;;;;11.90;3.28;;;;;;;22.05;100.00;102068.94;4938918;29;20554;-43
2023/10/05 09:43:38;;;;;;;10.40;2.70;;;;;;;22.00;100.00;102070.34;4929434;29;20129;-41
2023/10/05 09:46:09;;;;;;;10.15;2.78;;;;;;;22.05;100.00;102064.06;4929348;29;20095;-41
2023/10/05 09:48:38;;;;;;;12.60;2.80;;;;;;;22.15;100.00;102071.34;4930123;29;20482;-43
2023/10/05 09:51:13;;;;;;;11.32;2.83;;;;;;;22.20;100.00;102075.63;4909886;29;20052;-42
2023/10/05 09:53:44;;;;;;;14.90;3.35;;;;;;;22.09;100.00;102073.22;4929372;29;20408;-41
2023/10/05 09:56:14;;;;;;;15.25;3.00;;;;;;;22.29;100.00;102072.81;4929038;29;20047;-40
2023/10/05 09:58:52;;;;;;;16.60;3.50;;;;;;;22.17;100.00;102082.22;4930268;29;20706;-41
2023/10/05 10:01:21;;;;;;;15.75;3.33;;;;;;;22.13;100.00;102087.22;4929554;29;20127;-41
2023/10/05 10:03:52;;;;;;;11.60;2.65;;;;;;;22.15;100.00;102091.16;4913677;29;20056;-40
2023/10/05 10:06:24;;;;;;;15.70;2.85;;;;;;;22.21;100.00;102090.56;4930266;29;20063;-42
2023/10/05 10:08:57;;;;;;;13.52;2.72;;;;;;;22.14;100.00;102098.09;4924283;29;20526;-42
2023/10/05 10:11:31;;;;;;;14.10;3.30;;;;;;;22.17;100.00;102097.16;4929017;29;20107;-41
2023/10/05 10:14:00;;;;;;;11.02;2.75;;;;;;;22.17;100.00;102091.50;4925509;29;20144;-42
2023/10/05 10:16:31;;;;;;;9.13;2.42;;;;;;;22.17;100.00;102087.09;4931848;29;20040;-41
2023/10/05 10:19:07;;;;;;;11.10;2.70;;;;;;;22.20;100.00;102097.50;4931624;29;20210;-42
2023/10/05 10:21:41;;;;;;;13.73;3.25;;;;;;;22.20;100.00;102097.50;4929368;29;20711;-45
2023/10/05 10:24:12;;;;;;;11.30;2.70;;;;;;;22.21;100.00;102099.06;4927637;29;20059;-39
2023/10/05 10:26:53;;;;;;;11.18;2.38;;;;;;;22.18;100.00;102093.06;4931120;29;20056;-43
2023/10/05 10:29:22;;;;;;;10.20;2.20;;;;;;;22.23;100.00;102097.34;4924180;29;20055;-41
2023/10/05 10:32:12;;;;;;;8.40;2.17;;;;;;;22.19;100.00;102091.03;4929451;29;20055;-40
2023/10/05 10:34:49;;;;;;;9.30;2.55;;;;;;;22.24;100.00;102083.97;4927641;29;20134;-41
2023/10/05 10:37:42;;;;;;;10.07;2.63;;;;;;;22.24;100.00;102086.81;4922865;29;20047;-43
2023/10/05 10:42:49;;;;;;;8.60;2.28;;;;;;;22.25;100.00;102092.00;4931423;29;20051;-44
2023/10/05 10:45:23;;;;;;;11.85;2.95;;;;;;;22.25;100.00;102089.19;4930625;29;20463;-42
2023/10/05 10:47:52;;;;;;;9.27;2.40;;;;;;;22.26;100.00;102085.09;4923474;29;20051;-43
2023/10/05 10:50:52;;;;;;;8.98;2.13;;;;;;;22.41;100.00;102083.28;4929147;29;20059;-43
2023/10/05 10:53:16;;;;;;;10.40;2.45;;;;;;;22.33;100.00;102084.81;4918769;29;20255;-39
2023/10/05 10:55:58;;;;;;;10.65;2.78;;;;;;;22.34;100.00;102085.63;4933282;29;20594;-40
2023/10/05 10:58:30;;;;;;;9.68;2.72;;;;;;;22.44;100.00;102085.19;4932393;29;20048;-42
2023/10/05 11:01:22;;;;;;;9.52;2.28;;;;;;;22.41;100.00;102082.50;4929757;29;20050;-40
2023/10/05 11:03:56;;;;;;;7.75;2.53;;;;;;;22.42;100.00;102084.88;4933381;29;20056;-41
2023/10/05 11:06:28;;;;;;;7.35;2.30;;;;;;;22.42;100.00;102075.56;4935293;29;20047;-40
2023/10/05 11:08:59;;;;;;;8.73;2.30;;;;;;;22.41;100.00;102085.34;4933229;29;20055;-40
2023/10/05 11:11:26;;;;;;;10.27;2.42;;;;;;;22.40;100.00;102078.06;4933991;29;20079;-40
2023/10/05 11:13:56;;;;;;;6.82;1.90;;;;;;;22.43;100.00;102071.47;4933451;29;20051;-40
2023/10/05 11:16:43;;;;;;;9.48;1.90;;;;;;;22.40;100.00;102073.19;4934858;29;20525;-39
2023/10/05 11:19:13;;;;;;;9.20;2.65;;;;;;;22.45;100.00;102075.44;4934776;29;20133;-40
2023/10/05 11:22:04;;;;;;;9.82;2.30;;;;;;;22.46;100.00;102070.53;4933930;29;20135;-47
2023/10/05 11:24:31;;;;;;;8.85;2.00;;;;;;;22.42;100.00;102069.91;4934317;29;20044;-40
2023/10/05 11:29:42;;;;;;;5.32;1.90;;;;;;;22.43;100.00;102063.78;4930487;29;20135;-41
2023/10/05 11:32:19;;;;;;;7.45;2.28;;;;;;;22.55;100.00;102067.75;4915780;29;20213;-43
2023/10/05 11:35:13;;;;;;;7.97;2.72;;;;;;;22.32;100.00;102066.25;4920044;29;20051;-44
2023/10/05 11:37:58;;;;;;;11.40;2.67;;;;;;;22.38;100.00;102063.59;4929970;29;20414;-39
2023/10/05 11:40:31;;;;;;;12.60;3.08;;;;;;;22.39;100.00;102056.66;4929364;29;20166;-44
2023/10/05 11:42:58;;;;;;;10.63;2.72;;;;;;;22.46;100.00;102059.19;4928653;29;20053;-42
2023/10/05 11:45:24;;;;;;;16.02;2.63;;;;;;;22.42;100.00;102067.88;4931520;29;20067;-43
2023/10/05 11:47:54;;;;;;;11.07;2.22;;;;;;;22.58;100.00;102059.06;4931322;29;20107;-41
2023/10/05 11:50:24;;;;;;;11.43;2.78;;;;;;;22.44;100.00;102065.34;4931903;29;20498;-40
2023/10/05 11:52:52;;;;;;;10.07;2.47;;;;;;;22.30;100.00;102056.63;4928594;29;20622;-41
2023/10/05 11:55:20;;;;;;;10.07;2.63;;;;;;;22.31;100.00;102061.81;4920792;29;20083;-41